Time;durP1;ratioP1;P1;durP2;ratioP2;P2;SDS_P1;SDS_P2;PMS_P1;PMS_P2;Temp;Humidity;BMP_temperature;BMP_pressure;BME280_temperature;BME280_humidity;BME280_pressure;Samples;Min_cycle;Max_cycle;Signal;HPM_P1;HPM_P2
2022/01/20 00:03:18;;;;;;;;;33.25;31.50;;;;;;;;5073523;27;45442;-68
2022/01/20 00:27:37;;;;;;;;;38.25;35.00;;;;;;;;5072768;28;45725;-67
2022/01/20 00:35:19;;;;;;;;;32.75;31.00;;;;;;;;5065625;28;45395;-67
2022/01/20 00:37:45;;;;;;;;;36.50;33.50;;;;;;;;5069258;28;46668;-68
2022/01/20 00:40:11;;;;;;;;;34.50;34.50;;;;;;;;5071224;28;46291;-67
2022/01/20 00:42:36;;;;;;;;;36.25;31.75;;;;;;;;5064924;28;45467;-68
2022/01/20 00:45:02;;;;;;;;;35.75;32.25;;;;;;;;5064174;27;45488;-68
2022/01/20 00:47:27;;;;;;;;;32.25;29.75;;;;;;;;5067966;28;46246;-68
2022/01/20 00:49:53;;;;;;;;;33.75;32.00;;;;;;;;5064567;28;45517;-67
2022/01/20 00:52:18;;;;;;;;;44.00;36.75;;;;;;;;5072721;28;45424;-67
2022/01/20 00:54:43;;;;;;;;;31.25;30.25;;;;;;;;5074147;28;45348;-67
2022/01/20 00:57:09;;;;;;;;;38.00;33.00;;;;;;;;5073773;27;48493;-67
2022/01/20 00:59:34;;;;;;;;;31.25;30.75;;;;;;;;5073893;27;45313;-66
2022/01/20 01:02:00;;;;;;;;;34.00;29.75;;;;;;;;5074207;27;45463;-67
2022/01/20 01:04:27;;;;;;;;;30.50;29.00;;;;;;;;5074240;27;45585;-66
2022/01/20 01:07:20;;;;;;;;;31.75;31.00;;;;;;;;5073070;28;45724;-66
2022/01/20 01:09:45;;;;;;;;;26.25;26.25;;;;;;;;5072102;27;45926;-67
2022/01/20 01:12:16;;;;;;;;;30.00;27.50;;;;;;;;5075307;28;45820;-67
2022/01/20 01:14:47;;;;;;;;;26.25;24.25;;;;;;;;5071959;28;45446;-66
2022/01/20 01:22:21;;;;;;;;;26.00;23.75;;;;;;;;5073891;28;45459;-67
2022/01/20 01:24:50;;;;;;;;;27.75;26.25;;;;;;;;5074295;28;45439;-66
2022/01/20 01:27:16;;;;;;;;;36.75;29.25;;;;;;;;5072298;28;47492;-66
2022/01/20 01:32:19;;;;;;;;;27.50;27.50;;;;;;;;5073518;27;45324;-66
2022/01/20 01:34:51;;;;;;;;;31.25;29.25;;;;;;;;5072039;27;45468;-66
2022/01/20 01:38:23;;;;;;;;;28.00;27.50;;;;;;;;5073177;27;46082;-66
2022/01/20 01:40:19;;;;;;;;;31.75;28.50;;;;;;;;5059409;28;45339;-66
2022/01/20 01:42:47;;;;;;;;;37.75;35.25;;;;;;;;5072773;28;45458;-66
2022/01/20 01:45:25;;;;;;;;;28.25;26.25;;;;;;;;5075375;28;45343;-67
2022/01/20 01:47:50;;;;;;;;;30.00;26.75;;;;;;;;5073065;27;46035;-67
2022/01/20 01:50:15;;;;;;;;;26.75;26.75;;;;;;;;5071937;28;46047;-67
2022/01/20 01:55:46;;;;;;;;;26.25;25.50;;;;;;;;5096937;27;45563;-68
2022/01/20 01:58:12;;;;;;;;;27.00;24.25;;;;;;;;5104442;27;46022;-66
2022/01/20 02:00:37;;;;;;;;;27.00;24.25;;;;;;;;5096172;27;45413;-66
2022/01/20 02:03:03;;;;;;;;;34.75;27.75;;;;;;;;5095172;27;45389;-66
2022/01/20 02:05:30;;;;;;;;;27.00;27.00;;;;;;;;5095959;27;45862;-66
2022/01/20 02:21:07;;;;;;;;;28.25;20.75;;;;;;;;5094722;27;45387;-67
2022/01/20 02:23:33;;;;;;;;;30.50;26.25;;;;;;;;5095326;27;45312;-66
2022/01/20 02:25:59;;;;;;;;;24.25;22.25;;;;;;;;5095567;27;45324;-67
2022/01/20 02:28:24;;;;;;;;;28.50;25.00;;;;;;;;5092743;27;46278;-66
2022/01/20 02:30:50;;;;;;;;;18.75;18.75;;;;;;;;5093912;27;45357;-67
2022/01/20 02:33:20;;;;;;;;;23.25;23.25;;;;;;;;5093464;27;45426;-66
2022/01/20 02:35:53;;;;;;;;;29.00;24.25;;;;;;;;5074921;27;45427;-67
2022/01/20 02:38:26;;;;;;;;;24.50;21.75;;;;;;;;5091157;27;45699;-67
2022/01/20 02:46:19;;;;;;;;;18.50;18.00;;;;;;;;5096045;27;45477;-67
2022/01/20 02:48:44;;;;;;;;;23.25;23.25;;;;;;;;5094485;27;46540;-67
2022/01/20 02:51:10;;;;;;;;;20.50;20.50;;;;;;;;5095293;27;45686;-67
2022/01/20 02:53:35;;;;;;;;;18.50;18.50;;;;;;;;5102858;27;45384;-67
2022/01/20 02:56:00;;;;;;;;;21.75;19.25;;;;;;;;5102343;27;45340;-66
2022/01/20 02:58:26;;;;;;;;;24.00;21.00;;;;;;;;5096141;27;46251;-67
2022/01/20 03:00:51;;;;;;;;;23.25;15.00;;;;;;;;5093547;27;45331;-67
2022/01/20 03:03:16;;;;;;;;;26.50;23.00;;;;;;;;5075319;27;45318;-67
2022/01/20 03:05:42;;;;;;;;;23.00;19.75;;;;;;;;5093628;27;45438;-66
2022/01/20 03:08:07;;;;;;;;;19.25;18.75;;;;;;;;5093643;27;45637;-67
2022/01/20 03:10:32;;;;;;;;;24.00;19.50;;;;;;;;5076460;27;45440;-66
2022/01/20 03:12:57;;;;;;;;;19.25;18.00;;;;;;;;5093803;27;45330;-67
2022/01/20 03:15:23;;;;;;;;;18.50;14.50;;;;;;;;5093211;27;45277;-66
2022/01/20 03:17:49;;;;;;;;;24.00;20.25;;;;;;;;5093131;27;45855;-66
2022/01/20 03:20:14;;;;;;;;;27.25;23.25;;;;;;;;5074761;27;45234;-67
2022/01/20 03:22:39;;;;;;;;;24.50;22.50;;;;;;;;5076800;27;45359;-67
2022/01/20 03:25:05;;;;;;;;;27.00;25.00;;;;;;;;5075654;27;45305;-66
2022/01/20 03:27:30;;;;;;;;;21.25;18.25;;;;;;;;5093032;27;45594;-66
2022/01/20 03:29:56;;;;;;;;;22.50;21.25;;;;;;;;5093438;27;45288;-67
2022/01/20 03:32:21;;;;;;;;;23.25;22.00;;;;;;;;5093367;27;45461;-66
2022/01/20 03:34:46;;;;;;;;;25.50;19.50;;;;;;;;5094574;27;45312;-66
2022/01/20 03:37:11;;;;;;;;;23.25;20.50;;;;;;;;5094187;27;46454;-66
2022/01/20 03:39:36;;;;;;;;;18.00;18.00;;;;;;;;5092546;27;45471;-66
2022/01/20 03:42:02;;;;;;;;;21.75;21.75;;;;;;;;5092718;27;45432;-67
2022/01/20 03:44:27;;;;;;;;;22.75;19.00;;;;;;;;5093154;27;45403;-66
2022/01/20 03:46:52;;;;;;;;;22.00;18.50;;;;;;;;5093320;27;46408;-67
2022/01/20 03:49:35;;;;;;;;;18.75;18.25;;;;;;;;5093749;27;45331;-67
2022/01/20 03:52:00;;;;;;;;;24.75;23.00;;;;;;;;5087355;27;45333;-67
2022/01/20 03:54:25;;;;;;;;;16.25;13.50;;;;;;;;5092714;27;45411;-67
2022/01/20 03:56:50;;;;;;;;;19.75;18.25;;;;;;;;5093078;27;45667;-67
2022/01/20 03:59:16;;;;;;;;;22.00;18.75;;;;;;;;5093099;27;45419;-67
2022/01/20 04:01:41;;;;;;;;;17.00;12.50;;;;;;;;5094693;27;45327;-66
2022/01/20 04:04:06;;;;;;;;;17.25;17.25;;;;;;;;5095414;27;45480;-67
2022/01/20 04:06:32;;;;;;;;;23.00;19.50;;;;;;;;5093538;27;45605;-66
2022/01/20 04:08:57;;;;;;;;;22.25;17.50;;;;;;;;5093607;27;45277;-66
2022/01/20 04:11:23;;;;;;;;;23.25;21.25;;;;;;;;5093989;27;45409;-66
2022/01/20 04:13:49;;;;;;;;;18.25;17.50;;;;;;;;5075310;27;45501;-66
2022/01/20 04:16:32;;;;;;;;;14.50;13.75;;;;;;;;5095511;27;46356;-66
2022/01/20 04:18:59;;;;;;;;;16.00;16.00;;;;;;;;5069648;27;45377;-67
2022/01/20 04:21:30;;;;;;;;;19.00;16.00;;;;;;;;5085568;27;45473;-67
2022/01/20 04:23:56;;;;;;;;;17.50;13.50;;;;;;;;5093533;27;45494;-67
2022/01/20 04:26:22;;;;;;;;;15.75;12.75;;;;;;;;5093333;27;46630;-66
2022/01/20 04:28:48;;;;;;;;;16.00;15.00;;;;;;;;5093570;27;45425;-66
2022/01/20 04:31:13;;;;;;;;;16.00;15.75;;;;;;;;5095515;27;45383;-66
2022/01/20 04:33:38;;;;;;;;;15.00;14.75;;;;;;;;5093470;27;45510;-67
2022/01/20 04:36:05;;;;;;;;;16.25;14.50;;;;;;;;5087445;27;48979;-66
2022/01/20 04:38:31;;;;;;;;;18.00;13.00;;;;;;;;5093430;27;45518;-67
2022/01/20 04:40:56;;;;;;;;;13.25;13.25;;;;;;;;5093532;27;45366;-67
2022/01/20 04:43:21;;;;;;;;;16.00;15.25;;;;;;;;5095532;27;45235;-67
2022/01/20 04:45:54;;;;;;;;;15.75;15.75;;;;;;;;5074521;27;47898;-67
2022/01/20 04:48:48;;;;;;;;;15.50;13.50;;;;;;;;5093176;27;45344;-67
2022/01/20 04:59:24;;;;;;;;;15.25;11.00;;;;;;;;5096709;27;45400;-67
2022/01/20 05:01:50;;;;;;;;;13.50;10.25;;;;;;;;5096611;27;45298;-67
2022/01/20 05:04:15;;;;;;;;;16.00;12.00;;;;;;;;5098598;27;45518;-67
2022/01/20 05:06:43;;;;;;;;;13.00;11.75;;;;;;;;5071293;27;47838;-67
2022/01/20 05:09:10;;;;;;;;;10.00;10.00;;;;;;;;5071771;27;45216;-66
2022/01/20 05:11:41;;;;;;;;;13.50;11.25;;;;;;;;5076703;27;45302;-66
2022/01/20 05:14:06;;;;;;;;;13.50;11.25;;;;;;;;5096341;27;45382;-66
2022/01/20 05:16:31;;;;;;;;;6.50;5.50;;;;;;;;5097409;27;45355;-66
2022/01/20 05:18:56;;;;;;;;;22.00;17.50;;;;;;;;5096762;27;45395;-67
2022/01/20 05:21:22;;;;;;;;;12.25;11.00;;;;;;;;5096077;27;45289;-66
2022/01/20 05:23:47;;;;;;;;;16.75;12.25;;;;;;;;5096143;27;45411;-66
2022/01/20 05:26:13;;;;;;;;;14.75;12.00;;;;;;;;5094631;27;48264;-66
2022/01/20 05:28:38;;;;;;;;;9.75;7.75;;;;;;;;5097049;27;45394;-66
2022/01/20 05:31:03;;;;;;;;;12.75;9.75;;;;;;;;5097220;27;45403;-66
2022/01/20 05:33:29;;;;;;;;;11.25;9.00;;;;;;;;5096010;27;45433;-66
2022/01/20 05:35:54;;;;;;;;;11.00;11.00;;;;;;;;5095529;27;45681;-67
2022/01/20 05:38:19;;;;;;;;;11.25;9.75;;;;;;;;5095942;27;45553;-66
2022/01/20 05:40:45;;;;;;;;;8.00;6.50;;;;;;;;5092690;27;45419;-67
2022/01/20 05:43:10;;;;;;;;;10.75;10.75;;;;;;;;5092586;27;45362;-67
2022/01/20 05:45:35;;;;;;;;;7.75;7.75;;;;;;;;5094220;27;45548;-67
2022/01/20 05:48:10;;;;;;;;;8.25;7.25;;;;;;;;5076986;27;45306;-66
2022/01/20 05:50:36;;;;;;;;;10.75;8.25;;;;;;;;5074371;27;45476;-67
2022/01/20 05:53:02;;;;;;;;;11.50;10.50;;;;;;;;5094723;27;45424;-68
2022/01/20 05:55:28;;;;;;;;;11.00;11.00;;;;;;;;5088893;27;45929;-68
2022/01/20 05:57:53;;;;;;;;;6.75;6.00;;;;;;;;5094182;27;45461;-67
2022/01/20 06:00:22;;;;;;;;;3.00;3.00;;;;;;;;5092506;27;45424;-68
2022/01/20 06:05:32;;;;;;;;;7.50;6.25;;;;;;;;5084774;27;46260;-67
2022/01/20 06:07:57;;;;;;;;;8.25;8.00;;;;;;;;5080447;27;45457;-67
2022/01/20 06:10:22;;;;;;;;;10.50;7.50;;;;;;;;5096984;27;45271;-67
2022/01/20 06:12:48;;;;;;;;;12.00;9.25;;;;;;;;5076654;27;45464;-68
2022/01/20 06:15:13;;;;;;;;;12.00;11.25;;;;;;;;5094392;27;46471;-67
2022/01/20 06:17:38;;;;;;;;;9.00;9.00;;;;;;;;5094464;27;45673;-65
2022/01/20 06:20:04;;;;;;;;;13.25;10.00;;;;;;;;5077090;27;45362;-65
2022/01/20 06:22:30;;;;;;;;;9.75;7.75;;;;;;;;5097288;27;45506;-66
2022/01/20 06:24:55;;;;;;;;;14.00;12.00;;;;;;;;5094928;27;46251;-65
2022/01/20 06:27:20;;;;;;;;;11.00;7.50;;;;;;;;5092869;27;45634;-66
2022/01/20 06:29:46;;;;;;;;;10.50;9.25;;;;;;;;5096104;27;46398;-66
2022/01/20 06:32:11;;;;;;;;;11.25;7.75;;;;;;;;5094790;27;45528;-66
2022/01/20 06:34:36;;;;;;;;;8.00;8.00;;;;;;;;5096436;27;45585;-67
2022/01/20 06:37:01;;;;;;;;;8.00;8.00;;;;;;;;5094370;27;45349;-66
2022/01/20 06:39:27;;;;;;;;;13.25;11.00;;;;;;;;5094814;27;45400;-67
2022/01/20 06:41:52;;;;;;;;;12.25;8.00;;;;;;;;5094864;27;45557;-67
2022/01/20 06:44:18;;;;;;;;;15.00;15.00;;;;;;;;5094669;27;46024;-67
2022/01/20 06:46:43;;;;;;;;;19.25;15.50;;;;;;;;5095085;27;45427;-67
2022/01/20 06:49:10;;;;;;;;;10.00;8.50;;;;;;;;5096441;27;45331;-66
2022/01/20 06:51:35;;;;;;;;;9.50;7.25;;;;;;;;5069625;27;45448;-67
2022/01/20 06:54:01;;;;;;;;;13.00;11.25;;;;;;;;5091997;27;46498;-67
2022/01/20 06:56:26;;;;;;;;;12.25;10.75;;;;;;;;5073733;27;45986;-66
2022/01/20 06:58:51;;;;;;;;;17.00;13.75;;;;;;;;5094662;27;45459;-67
2022/01/20 07:01:17;;;;;;;;;14.50;12.00;;;;;;;;5096786;27;45470;-67
2022/01/20 07:03:42;;;;;;;;;13.50;12.50;;;;;;;;5094191;27;45594;-67
2022/01/20 07:06:07;;;;;;;;;12.00;11.00;;;;;;;;5094446;27;45474;-68
2022/01/20 07:08:32;;;;;;;;;10.75;9.50;;;;;;;;5084824;27;45515;-68
2022/01/20 07:10:58;;;;;;;;;16.50;15.50;;;;;;;;5094396;27;45474;-67
2022/01/20 07:13:23;;;;;;;;;15.00;12.75;;;;;;;;5096467;27;46532;-68
2022/01/20 07:15:48;;;;;;;;;16.00;15.00;;;;;;;;5093542;27;46117;-68
2022/01/20 07:18:13;;;;;;;;;15.25;14.25;;;;;;;;5076194;27;45482;-67
2022/01/20 07:20:38;;;;;;;;;9.00;7.00;;;;;;;;5075742;27;45368;-67
2022/01/20 07:23:04;;;;;;;;;14.00;13.75;;;;;;;;5092878;27;45875;-68
2022/01/20 07:25:29;;;;;;;;;14.25;12.75;;;;;;;;5096815;27;45352;-68
2022/01/20 07:27:54;;;;;;;;;11.00;11.00;;;;;;;;5104662;27;45465;-67
2022/01/20 07:30:20;;;;;;;;;14.00;11.00;;;;;;;;5080437;27;45521;-67
2022/01/20 07:32:46;;;;;;;;;10.00;10.00;;;;;;;;5094006;27;46125;-68
2022/01/20 07:35:12;;;;;;;;;6.00;3.00;;;;;;;;5075696;27;46098;-68
2022/01/20 07:37:37;;;;;;;;;15.50;12.25;;;;;;;;5104208;27;45221;-68
2022/01/20 07:40:03;;;;;;;;;11.00;11.00;;;;;;;;5105926;27;45475;-68
2022/01/20 07:42:28;;;;;;;;;11.00;8.00;;;;;;;;5097717;27;45624;-68
2022/01/20 07:44:53;;;;;;;;;14.25;12.50;;;;;;;;5075682;27;45449;-68
2022/01/20 07:47:18;;;;;;;;;10.75;6.75;;;;;;;;5075944;27;45289;-68
2022/01/20 07:49:43;;;;;;;;;8.25;8.00;;;;;;;;5077216;27;45226;-68
2022/01/20 07:52:10;;;;;;;;;8.00;8.00;;;;;;;;5101351;27;45715;-68
2022/01/20 07:54:36;;;;;;;;;10.50;9.00;;;;;;;;5096521;27;45427;-68
2022/01/20 07:57:02;;;;;;;;;12.00;10.75;;;;;;;;5093542;27;45315;-68
2022/01/20 07:59:27;;;;;;;;;11.50;9.75;;;;;;;;5076132;27;45301;-68
2022/01/20 08:01:52;;;;;;;;;9.00;9.00;;;;;;;;5082995;27;47505;-68
2022/01/20 08:04:17;;;;;;;;;13.75;8.25;;;;;;;;5094468;27;45369;-68
2022/01/20 08:06:43;;;;;;;;;19.75;17.50;;;;;;;;5093542;27;44781;-68
2022/01/20 08:09:09;;;;;;;;;8.00;8.00;;;;;;;;5057887;27;45420;-67
2022/01/20 08:11:34;;;;;;;;;10.75;10.75;;;;;;;;5093041;27;45522;-67
2022/01/20 08:13:59;;;;;;;;;7.00;7.00;;;;;;;;5093633;27;45377;-68
2022/01/20 08:16:24;;;;;;;;;14.50;10.75;;;;;;;;5097109;27;45380;-67
2022/01/20 08:18:50;;;;;;;;;9.25;7.75;;;;;;;;5093259;27;45418;-67
2022/01/20 08:21:15;;;;;;;;;11.75;7.75;;;;;;;;5090511;27;46309;-68
2022/01/20 08:23:40;;;;;;;;;10.50;10.50;;;;;;;;5101741;27;45437;-69
2022/01/20 08:26:05;;;;;;;;;10.25;9.75;;;;;;;;5108587;27;45413;-67
2022/01/20 08:28:30;;;;;;;;;10.75;8.50;;;;;;;;5113852;27;45441;-66
2022/01/20 08:30:56;;;;;;;;;10.50;9.00;;;;;;;;5096552;27;45517;-67
2022/01/20 08:33:21;;;;;;;;;9.25;9.25;;;;;;;;5096757;27;45354;-67
2022/01/20 08:35:47;;;;;;;;;12.00;8.50;;;;;;;;5080085;27;45740;-68
2022/01/20 08:38:13;;;;;;;;;13.75;9.75;;;;;;;;5078231;27;45231;-67
2022/01/20 08:40:38;;;;;;;;;10.75;8.75;;;;;;;;5079318;27;48463;-67
2022/01/20 08:43:03;;;;;;;;;12.25;12.00;;;;;;;;5079105;27;46414;-67
2022/01/20 08:45:30;;;;;;;;;8.75;8.75;;;;;;;;5096704;27;45245;-67
2022/01/20 08:47:57;;;;;;;;;11.50;10.00;;;;;;;;5097116;27;45517;-67
2022/01/20 08:50:23;;;;;;;;;6.25;6.25;;;;;;;;5075988;27;47811;-67
2022/01/20 08:52:49;;;;;;;;;11.00;11.00;;;;;;;;5105170;27;45448;-67
2022/01/20 08:55:15;;;;;;;;;10.50;8.25;;;;;;;;5075816;27;45321;-68
2022/01/20 08:57:40;;;;;;;;;13.25;12.25;;;;;;;;5095712;27;45470;-68
2022/01/20 09:00:06;;;;;;;;;11.00;11.00;;;;;;;;5096010;27;45752;-69
2022/01/20 09:02:31;;;;;;;;;13.25;10.50;;;;;;;;5103537;27;45387;-69
2022/01/20 09:04:58;;;;;;;;;12.50;10.75;;;;;;;;5096519;27;45318;-69
2022/01/20 09:07:24;;;;;;;;;7.25;7.25;;;;;;;;5083587;27;45566;-68
2022/01/20 09:09:50;;;;;;;;;21.25;12.50;;;;;;;;5096675;27;46365;-70
2022/01/20 09:15:27;;;;;;;;;19.25;10.25;;;;;;;;5083290;27;45535;-68
2022/01/20 09:17:51;;;;;;;;;24.25;23.00;;;;;;;;5096024;27;45524;-69
2022/01/20 09:20:16;;;;;;;;;16.50;15.00;;;;;;;;5077335;27;47738;-68
2022/01/20 09:22:41;;;;;;;;;13.50;9.25;;;;;;;;5096795;27;45499;-69
2022/01/20 09:25:07;;;;;;;;;16.50;14.00;;;;;;;;5097392;27;45330;-67
2022/01/20 09:27:33;;;;;;;;;15.00;13.50;;;;;;;;5095391;27;45256;-67
2022/01/20 09:29:59;;;;;;;;;16.00;14.25;;;;;;;;5095893;27;45351;-67
2022/01/20 09:32:28;;;;;;;;;15.00;15.00;;;;;;;;5077649;27;45354;-68
2022/01/20 09:34:56;;;;;;;;;20.50;17.25;;;;;;;;5095843;27;45448;-68
2022/01/20 09:37:21;;;;;;;;;15.75;14.25;;;;;;;;5091933;27;45551;-67
2022/01/20 09:39:46;;;;;;;;;18.25;15.00;;;;;;;;5094770;27;45608;-67
2022/01/20 09:42:11;;;;;;;;;23.00;17.50;;;;;;;;5095357;27;45758;-69
2022/01/20 09:44:41;;;;;;;;;14.75;14.75;;;;;;;;5095475;27;45397;-67
2022/01/20 09:47:07;;;;;;;;;29.25;27.75;;;;;;;;5095813;27;45426;-67
2022/01/20 09:49:32;;;;;;;;;19.75;18.50;;;;;;;;5078682;27;47497;-67
2022/01/20 09:51:57;;;;;;;;;15.25;13.50;;;;;;;;5096025;27;45442;-68
2022/01/20 09:54:22;;;;;;;;;19.00;16.25;;;;;;;;5094974;27;45380;-68
2022/01/20 09:56:48;;;;;;;;;20.75;19.75;;;;;;;;5086635;27;45444;-68
2022/01/20 09:59:13;;;;;;;;;22.00;16.00;;;;;;;;5077038;27;48737;-68
2022/01/20 10:01:40;;;;;;;;;21.50;17.75;;;;;;;;5096547;27;45396;-69
2022/01/20 10:04:06;;;;;;;;;23.50;20.75;;;;;;;;5096829;27;45202;-69
2022/01/20 10:06:31;;;;;;;;;18.50;15.25;;;;;;;;5093604;27;45511;-68
2022/01/20 10:09:00;;;;;;;;;12.25;12.25;;;;;;;;5095271;27;45685;-69
2022/01/20 10:11:26;;;;;;;;;21.00;16.75;;;;;;;;5095555;27;45482;-68
2022/01/20 10:13:51;;;;;;;;;17.50;16.50;;;;;;;;5096142;27;45609;-69
2022/01/20 10:16:17;;;;;;;;;45.75;39.00;;;;;;;;5097323;27;45449;-68
2022/01/20 10:18:53;;;;;;;;;24.50;22.25;;;;;;;;5076047;27;47690;-68
2022/01/20 10:21:26;;;;;;;;;23.25;20.25;;;;;;;;5094847;27;45475;-68
2022/01/20 10:23:51;;;;;;;;;18.25;17.25;;;;;;;;5095143;27;45450;-69
2022/01/20 10:26:16;;;;;;;;;68.75;54.00;;;;;;;;5094830;27;44790;-68
2022/01/20 10:29:03;;;;;;;;;20.00;19.25;;;;;;;;5110483;27;45893;-67
2022/01/20 10:31:49;;;;;;;;;28.25;24.50;;;;;;;;5097038;27;45356;-67
2022/01/20 10:34:30;;;;;;;;;32.00;31.25;;;;;;;;5076771;27;45355;-68
2022/01/20 10:36:58;;;;;;;;;22.50;18.75;;;;;;;;5094098;27;45583;-69
2022/01/20 10:39:32;;;;;;;;;19.75;18.50;;;;;;;;5080912;27;48634;-68
2022/01/20 10:42:02;;;;;;;;;16.25;15.50;;;;;;;;5094473;27;45374;-69
2022/01/20 10:44:27;;;;;;;;;22.75;19.50;;;;;;;;5094646;27;45584;-68
2022/01/20 10:46:54;;;;;;;;;19.50;18.00;;;;;;;;5091980;27;45396;-69
2022/01/20 10:49:20;;;;;;;;;19.00;18.00;;;;;;;;5095111;27;45856;-68
2022/01/20 10:52:00;;;;;;;;;19.25;18.25;;;;;;;;5073472;27;45726;-68
2022/01/20 10:54:25;;;;;;;;;17.50;16.25;;;;;;;;5093657;27;45409;-68
2022/01/20 10:56:50;;;;;;;;;22.75;19.00;;;;;;;;5093317;27;45398;-69
2022/01/20 10:59:16;;;;;;;;;21.75;17.75;;;;;;;;5092954;27;45635;-67
2022/01/20 11:01:41;;;;;;;;;17.75;16.75;;;;;;;;5075717;27;46395;-68
2022/01/20 11:04:07;;;;;;;;;20.00;20.00;;;;;;;;5094710;27;45378;-67
2022/01/20 11:06:36;;;;;;;;;18.00;15.00;;;;;;;;5093404;27;45552;-67
2022/01/20 11:09:03;;;;;;;;;24.25;20.25;;;;;;;;5093094;27;46560;-68
2022/01/20 11:11:28;;;;;;;;;24.50;23.25;;;;;;;;5074902;27;45391;-67
2022/01/20 11:13:54;;;;;;;;;18.50;16.75;;;;;;;;5093465;27;45306;-68
2022/01/20 11:16:21;;;;;;;;;25.00;21.75;;;;;;;;5095254;27;45416;-68
2022/01/20 11:18:46;;;;;;;;;21.25;20.25;;;;;;;;5093033;27;46433;-67
2022/01/20 11:21:22;;;;;;;;;28.50;25.50;;;;;;;;5092969;27;45508;-68
2022/01/20 11:23:47;;;;;;;;;21.75;20.25;;;;;;;;5093239;27;45579;-68
2022/01/20 11:26:12;;;;;;;;;13.75;12.00;;;;;;;;5093912;27;45783;-68
2022/01/20 11:28:37;;;;;;;;;28.75;26.00;;;;;;;;5094910;27;45529;-67
2022/01/20 11:31:08;;;;;;;;;15.25;13.25;;;;;;;;5076276;27;45333;-68
2022/01/20 11:33:41;;;;;;;;;21.50;20.00;;;;;;;;5075614;27;45381;-67
2022/01/20 11:36:23;;;;;;;;;13.25;9.50;;;;;;;;5075564;27;45439;-68
2022/01/20 11:38:50;;;;;;;;;12.25;12.00;;;;;;;;5093416;27;46713;-67
2022/01/20 11:41:21;;;;;;;;;11.50;10.25;;;;;;;;5075720;27;45448;-67
2022/01/20 11:43:48;;;;;;;;;9.00;8.00;;;;;;;;5093884;27;45441;-67
2022/01/20 11:46:15;;;;;;;;;10.25;10.25;;;;;;;;5075465;27;45505;-67
2022/01/20 11:48:53;;;;;;;;;9.50;9.50;;;;;;;;5073724;27;45995;-67
2022/01/20 11:51:19;;;;;;;;;13.25;7.25;;;;;;;;5091589;27;45432;-69
2022/01/20 11:53:54;;;;;;;;;10.00;8.00;;;;;;;;5089387;27;45512;-68
2022/01/20 11:56:27;;;;;;;;;10.00;7.25;;;;;;;;5092361;27;45505;-68
2022/01/20 11:58:52;;;;;;;;;11.25;7.00;;;;;;;;5086466;27;46737;-69
2022/01/20 12:01:17;;;;;;;;;6.00;4.50;;;;;;;;5089008;27;45450;-68
2022/01/20 12:03:49;;;;;;;;;8.50;8.50;;;;;;;;5097046;27;45270;-67
2022/01/20 12:06:22;;;;;;;;;12.50;11.00;;;;;;;;5096496;27;46823;-69
2022/01/20 12:08:54;;;;;;;;;12.75;9.25;;;;;;;;5095389;27;47428;-68
2022/01/20 12:11:19;;;;;;;;;6.25;6.25;;;;;;;;5087341;27;45872;-69
2022/01/20 12:13:55;;;;;;;;;13.50;10.25;;;;;;;;5092099;27;45435;-70
2022/01/20 12:16:21;;;;;;;;;7.00;5.75;;;;;;;;5086418;27;45463;-69
2022/01/20 12:18:54;;;;;;;;;7.00;6.00;;;;;;;;5094969;27;46408;-68
2022/01/20 12:21:19;;;;;;;;;7.25;7.25;;;;;;;;5096674;27;45557;-68
2022/01/20 12:23:46;;;;;;;;;6.50;6.50;;;;;;;;5096693;27;45325;-67
2022/01/20 12:26:11;;;;;;;;;8.75;6.25;;;;;;;;5092051;27;45510;-68
2022/01/20 12:28:37;;;;;;;;;3.50;3.50;;;;;;;;5097728;27;46023;-69
2022/01/20 12:31:03;;;;;;;;;5.50;4.75;;;;;;;;5097571;27;45330;-69
2022/01/20 12:33:31;;;;;;;;;9.00;7.00;;;;;;;;5096802;27;45597;-69
2022/01/20 12:36:02;;;;;;;;;6.75;6.00;;;;;;;;5096663;27;45342;-69
2022/01/20 12:38:27;;;;;;;;;11.25;8.25;;;;;;;;5077905;27;46563;-68
2022/01/20 12:41:01;;;;;;;;;6.25;3.75;;;;;;;;5090563;27;45340;-68
2022/01/20 12:43:39;;;;;;;;;2.50;2.00;;;;;;;;5091758;27;45421;-68
2022/01/20 12:46:05;;;;;;;;;3.75;3.75;;;;;;;;5095228;27;45462;-67
2022/01/20 12:48:31;;;;;;;;;4.75;3.50;;;;;;;;5093638;27;46810;-68
2022/01/20 12:50:59;;;;;;;;;8.00;5.00;;;;;;;;5078297;27;45387;-68
2022/01/20 12:53:34;;;;;;;;;6.50;6.50;;;;;;;;5077644;27;45559;-68
2022/01/20 12:55:59;;;;;;;;;7.25;6.50;;;;;;;;5078034;27;45600;-68
2022/01/20 12:58:24;;;;;;;;;3.75;3.75;;;;;;;;5098215;27;46295;-68
2022/01/20 13:01:03;;;;;;;;;5.50;5.25;;;;;;;;5093746;27;45461;-68
2022/01/20 13:03:33;;;;;;;;;3.50;2.25;;;;;;;;5096422;27;45414;-68
2022/01/20 13:05:59;;;;;;;;;8.50;5.25;;;;;;;;5095993;27;45569;-69
2022/01/20 13:08:30;;;;;;;;;2.25;2.25;;;;;;;;5077595;27;48522;-68
2022/01/20 13:11:03;;;;;;;;;3.75;2.50;;;;;;;;5076844;27;45431;-68
2022/01/20 13:13:28;;;;;;;;;2.25;1.00;;;;;;;;5093971;27;45321;-68
2022/01/20 13:15:53;;;;;;;;;4.00;2.25;;;;;;;;5093715;27;45885;-67
2022/01/20 13:18:18;;;;;;;;;2.50;1.50;;;;;;;;5072037;27;47654;-67
2022/01/20 13:20:52;;;;;;;;;2.00;2.00;;;;;;;;5091317;27;45558;-66
2022/01/20 13:25:45;;;;;;;;;2.25;2.00;;;;;;;;5096072;27;45378;-65
2022/01/20 13:28:11;;;;;;;;;9.00;4.75;;;;;;;;5087576;27;47321;-67
2022/01/20 13:30:36;;;;;;;;;12.00;11.50;;;;;;;;5095450;27;45322;-68
2022/01/20 13:33:05;;;;;;;;;4.25;3.25;;;;;;;;5094812;27;45722;-67
2022/01/20 13:35:41;;;;;;;;;0.00;0.00;;;;;;;;5095342;27;45470;-67
2022/01/20 13:38:08;;;;;;;;;3.00;2.00;;;;;;;;5079957;27;46602;-66
2022/01/20 13:40:33;;;;;;;;;6.00;4.00;;;;;;;;5078512;27;45379;-66
2022/01/20 13:45:45;;;;;;;;;6.50;4.75;;;;;;;;5095109;27;46010;-67
2022/01/20 13:48:23;;;;;;;;;2.00;2.00;;;;;;;;5093969;27;46946;-68
2022/01/20 13:50:53;;;;;;;;;2.75;2.75;;;;;;;;5095307;27;45384;-67
2022/01/20 13:53:20;;;;;;;;;3.00;2.00;;;;;;;;5096136;27;45381;-67
2022/01/20 13:55:47;;;;;;;;;2.75;2.00;;;;;;;;5077444;27;45253;-68
2022/01/20 13:58:26;;;;;;;;;4.50;3.25;;;;;;;;5095276;27;46666;-67
2022/01/20 14:00:52;;;;;;;;;4.50;4.50;;;;;;;;5094795;27;45399;-67
2022/01/20 14:03:17;;;;;;;;;3.00;3.00;;;;;;;;5093825;27;45552;-68
2022/01/20 14:05:44;;;;;;;;;6.75;4.50;;;;;;;;5094818;27;45379;-67
2022/01/20 14:08:09;;;;;;;;;9.75;6.00;;;;;;;;5076617;27;48162;-67
2022/01/20 14:10:34;;;;;;;;;5.25;5.25;;;;;;;;5077885;27;45468;-68
2022/01/20 14:13:00;;;;;;;;;4.00;4.00;;;;;;;;5094502;27;45250;-67
2022/01/20 14:15:26;;;;;;;;;3.50;1.50;;;;;;;;5094917;27;45436;-67
2022/01/20 14:17:54;;;;;;;;;4.00;2.00;;;;;;;;5092777;27;46370;-67
2022/01/20 14:20:23;;;;;;;;;2.50;2.50;;;;;;;;5075859;27;45442;-67
2022/01/20 14:22:48;;;;;;;;;9.25;3.50;;;;;;;;5093687;27;47925;-66
2022/01/20 14:25:14;;;;;;;;;5.50;3.25;;;;;;;;5076185;27;45493;-66
2022/01/20 14:27:39;;;;;;;;;2.00;2.00;;;;;;;;5093773;27;46621;-66
2022/01/20 14:30:07;;;;;;;;;4.00;3.00;;;;;;;;5094477;27;45439;-66
2022/01/20 14:32:32;;;;;;;;;2.50;2.50;;;;;;;;5093277;27;45424;-66
2022/01/20 14:34:57;;;;;;;;;11.25;6.00;;;;;;;;5090853;27;45469;-68
2022/01/20 14:37:23;;;;;;;;;27.75;23.00;;;;;;;;5070685;27;46294;-67
2022/01/20 14:39:48;;;;;;;;;17.25;16.50;;;;;;;;5088198;27;45467;-67
2022/01/20 14:42:14;;;;;;;;;10.25;10.25;;;;;;;;5087572;27;45359;-67
2022/01/20 14:44:40;;;;;;;;;10.75;9.25;;;;;;;;5088049;27;45284;-67
2022/01/20 14:47:06;;;;;;;;;5.50;4.00;;;;;;;;5072459;27;46506;-68
2022/01/20 14:49:31;;;;;;;;;3.50;2.50;;;;;;;;5075653;27;46570;-67
2022/01/20 14:52:00;;;;;;;;;3.00;3.00;;;;;;;;5088381;27;45258;-67
2022/01/20 14:54:25;;;;;;;;;5.25;2.00;;;;;;;;5090976;27;45403;-67
2022/01/20 14:56:50;;;;;;;;;7.25;4.75;;;;;;;;5092011;27;46439;-67
2022/01/20 14:59:16;;;;;;;;;20.75;17.25;;;;;;;;5074460;27;45381;-67
2022/01/20 15:01:41;;;;;;;;;11.50;10.50;;;;;;;;5077586;27;45407;-67
2022/01/20 15:04:06;;;;;;;;;40.75;36.25;;;;;;;;5093947;27;45409;-67
2022/01/20 15:06:31;;;;;;;;;14.00;14.00;;;;;;;;5092774;27;45495;-67
2022/01/20 15:08:57;;;;;;;;;32.75;31.25;;;;;;;;5093039;27;45455;-66
2022/01/20 15:11:22;;;;;;;;;58.25;48.75;;;;;;;;5092910;27;47913;-65
2022/01/20 15:13:47;;;;;;;;;32.75;30.00;;;;;;;;5094877;27;45301;-65
2022/01/20 15:16:13;;;;;;;;;58.25;49.75;;;;;;;;5075285;27;46988;-67
2022/01/20 15:18:40;;;;;;;;;10.00;7.75;;;;;;;;5074048;27;45407;-68
2022/01/20 15:21:06;;;;;;;;;39.00;34.75;;;;;;;;5092279;27;45569;-67
2022/01/20 15:23:31;;;;;;;;;56.75;47.75;;;;;;;;5091739;27;45468;-66
2022/01/20 15:25:56;;;;;;;;;57.50;47.50;;;;;;;;5084118;27;45745;-67
2022/01/20 15:28:21;;;;;;;;;22.25;20.75;;;;;;;;5081899;27;45417;-66
2022/01/20 15:30:47;;;;;;;;;38.00;33.25;;;;;;;;5073225;27;45464;-65
2022/01/20 15:33:14;;;;;;;;;98.50;91.00;;;;;;;;5092934;27;45384;-66
2022/01/20 15:35:41;;;;;;;;;25.75;18.50;;;;;;;;5093375;27;45843;-67
2022/01/20 15:38:06;;;;;;;;;56.50;44.50;;;;;;;;5090476;27;45393;-67
2022/01/20 15:40:32;;;;;;;;;56.25;48.25;;;;;;;;5093502;27;45476;-66